Pagina principale
METAR-TAF:

METAR-TAF

Aeroporti :

East London, Sudafrica

latitudine: 33-02S, longitudine: 027-50E, altezza: 125 m

Osservazione

Il bollettino è stato emesso 4 ore e 54 minuti fa, alle 18:00 UTC
Vento 5 kt da nord-ovest, variando fra ovest/nord-ovest e nord
Temperature 16°C
Umidità 77%
Pressione 1022 hPa
Visibilità 10 km o più
nessuna nube inferiore a 1500 m e nessun cumulonembo

METAR: FAEL 161800Z 32005KT 290V350 CAVOK 16/12 Q1022

Ora: 00:54 (22:54 UTC)

Previsione

Il bollettino è stato emesso 13 ore e 54 minuti fa, alle 09:00 UTC
Previsione valida dal 16 alle 10 UTC al 16 alle 19 UTC
Vento 6 kt da nord/nord-ovest
Visibilità 10 km o più
nessuna nube inferiore a 1500 m e nessun cumulonembo
Evoluzione graduale
dal 16 alle 10 UTC al 16 alle 12 UTC
Vento 11 kt da est/nord-est

TAF: FAEL 160900Z 1610/1619 33006KT CAVOK TX22/1612Z TN15/1618Z BECMG 1610/1612 06011KT

Osservazioni e previsioni meteorologiche di più di 4000 aeroporti (messaggi METAR e TAF).

Le stazioni disponibili sono rappresentate dai dischi gialli e rossi sulla carta.

Puntare il mouse per vedere il nome della stazione.

Clicca sopra per visualizzare le osservazioni e previsioni meteorologiche.

Per cambiare la mappa : fare clic sui pulsanti verdi con una croce nera per ingrandire, il pulsante verde con un trattino per diminuire, o sulla freccia verde per le mappe adiacenti.


METAR-TAF: